Saint Johns, Ohio
Current Conditions -  °F | °C
As of 5:53 PM on Monday 22 Dec 2014 (Local Time) from KAOH Reporting Station
Overcast Overcast  
Wind Chill: 37°   Ceiling: 8500
Heat Index: 42°   Visibility: 7mi
Dew Point: 34°   Wind: 8mph
Humidity: 73%   Direction: 100°E
Pressure: 29.84"   Gusts: NA
Location:  40.56°N, 84.08°W
Report Text: KAOH 222253Z AUTO 10007KT 7SM OVC085 06/01 A2984 RMK AO2 SLP113 T00560011
Loading
Personal Weather Stations






























Interactive Weather Map New forecast layout! Learn more

10-Day Weather Forecast

Advertisements
Track Severe Weather on mobile